Nearby METAR Reports

 

EGTC - Cranfield, United Kingdom
Distance from station: SE 15mi, 24km
Updated: 24/09/2020 08:20
Nearby showers, Partly cloudy
Nearby showers, Partly cloudy
 Wind from SSW
Wind: SSW 15 mph , 24 km/h
Temperature: 9°C
Wind Chill: 6°C
Dew Point: 8°C
Humidity: 94%
Barometer: 994 hPa
Summary: Nearby Showers
Clouds: Partly Cloudy
Visibility: 6 miles , 10 km
Cloud details: Partly Cloudy 396 m
2020/09/24 07:20 EGTC 240720Z 20013KT 140V200 9999 VCSH SCT013 09/08 Q0994
EGTK - Oxford, United Kingdom
Distance from station: SW 32mi, 51km
Updated: 24/09/2020 08:50
Few Clouds
Few Clouds
 Wind from SW
Wind: SW 10 mph , 17 km/h
Temperature: 11°C
Dew Point: 9°C
Humidity: 88%
Barometer: 994 hPa
Clouds: Few Clouds
Visibility: 6 miles , 10 km
Cloud details: Few Clouds 457 m
2020/09/24 07:50 EGTK 240750Z 23009KT 9999 FEW015 11/09 Q0994
EGGW - Luton Airport, United Kingdom
Distance from station: SE 32mi, 52km
Updated: 24/09/2020 08:50
Few Clouds
Few Clouds
 Wind from SSW
Wind: SSW 9 mph , 15 km/h
Temperature: 10°C
Wind Chill: 8°C
Dew Point: 9°C
Humidity: 94%
Barometer: 995 hPa
Clouds: Few Clouds
Visibility: 6 miles , 10 km
Cloud details: Few Clouds 274 m
2020/09/24 07:50 EGGW 240750Z 20008KT 9999 FEW009 10/09 Q0995
 
EGXT - Wittering Raf, United Kingdom
Distance from station: NNE 33mi, 53km
Updated: 24/09/2020 08:50
Mostly Cloudy
Mostly Cloudy
 Wind from S
Wind: S 12 mph , 19 km/h
Temperature: 10°C
Wind Chill: 7°C
Dew Point: 9°C
Humidity: 94%
Barometer: 993 hPa
Clouds: Mostly Cloudy
Visibility: 6 miles , 10 km
Cloud details: Mostly Cloudy 274 m
Mostly Cloudy 427 m
2020/09/24 07:50 EGXT 240750Z 18010KT 9999 BKN009 BKN014 10/09 Q0993 GRN
EGBB - Birmingham Airpo, United Kingdom
Distance from station: WNW 41mi, 65km
Updated: 24/09/2020 08:20
Clear
Clear
 Wind from S
Wind: S 9 mph , 15 km/h
Temperature: 9°C
Wind Chill: 7°C
Dew Point: 8°C
Humidity: 94%
Barometer: 993 hPa
Summary: Clear
Visibility: greater than 7 miles , 10 km
2020/09/24 07:20 EGBB 240720Z 19008KT CAVOK 09/08 Q0993
EGUB - Benson Raf, United Kingdom
Distance from station: S 42mi, 67km
Updated: 24/09/2020 08:50
Few Clouds
Few Clouds
 Wind from S
Wind: S 14 mph , 22 km/h
Temperature: 11°C
Dew Point: 9°C
Humidity: 88%
Barometer: 995 hPa
Clouds: Few Clouds
Visibility: 6 miles , 10 km
Cloud details: Few Clouds 244 m
2020/09/24 07:50 EGUB 240750Z 18012KT 9999 FEW008 11/09 Q0995 NOSIG RMK BLU BLU
 
EGVN - Brize Norton Raf, United Kingdom
Distance from station: SW 43mi, 69km
Updated: 24/09/2020 08:50
Few Clouds
Few Clouds
 Wind from SW
Wind: SW 6 mph , 9 km/h
Temperature: 11°C
Dew Point: 7°C
Humidity: 77%
Barometer: 994 hPa
Clouds: Few Clouds
Visibility: 6 miles , 10 km
Cloud details: Few Clouds 366 m
Few Clouds 914 m
2020/09/24 07:50 EGVN 240750Z 23005KT 9999 FEW012 FEW030CB 11/07 Q0994 NOSIG RMK BLU BLU
EGSC - Cambridge, United Kingdom
Distance from station: E 44mi, 72km
Updated: 23/09/2020 17:50
NOT Current
Rain, Partly cloudy
Rain, Partly cloudy
 Wind from W
Wind: W 8 mph , 13 km/h
Temperature: 13°C
Dew Point: 11°C
Humidity: 88%
Barometer: 996 hPa
Summary: Rain
Clouds: Partly Cloudy
Visibility: 4 miles , 7 km
Cloud details: Partly Cloudy 244 m
2020/09/23 16:50 EGSC 231650Z 28007KT 260V330 7000 RA SCT008 13/11 Q0996
EGNX - East Midlands, United Kingdom
Distance from station: NNW 46mi, 73km
Updated: 24/09/2020 08:50
Partly Cloudy
Partly Cloudy
 Wind from S
Wind: S 15 mph , 24 km/h
Temperature: 10°C
Wind Chill: 7°C
Dew Point: 7°C
Humidity: 82%
Barometer: 992 hPa
Clouds: Partly Cloudy
Visibility: 6 miles , 10 km
Cloud details: Partly Cloudy 457 m
2020/09/24 07:50 EGNX 240750Z 17013KT 9999 SCT015 10/07 Q0992
 
EGWU - Northolt Raf, United Kingdom
Distance from station: SSE 50mi, 80km
Updated: 24/09/2020 08:50
Clear
Clear
 Wind from SW
Wind: SW 12 mph , 19 km/h
Temperature: 11°C
Dew Point: 9°C
Humidity: 88%
Barometer: 996 hPa
Summary: Clear
Visibility: greater than 7 miles , 10 km
2020/09/24 07:50 EGWU 240750Z 22010KT CAVOK 11/09 Q0996 NOSIG RMK BLU BLU